Pagina principală
METAR-TAF:

METAR-TAF

Aeroporturi :

Gainesville Municipal Airport

Gainesville, Texas, Statele Unite ale Americii

Latitudine: 33-39-05N, longitudine: 097-11-49W, elevație: 256 m

Observații meteo curente

Raportul a fost făcut în urmă cu 23 de minute, la 04:35 UTC
Vânt 6 kt de la Sud-est
Temperatură 24°C
Umiditate 78%
Presiune 1014 hPa
Vizibilitate: 16.1 km
Cer senin

METAR: KGLE 190435Z AUTO 13006KT 10SM CLR 24/20 A2994 RMK AO2 T02410196 PWINO

Ora: 23:58 (04:58 UTC)


TAF: lipsă

Observații și prognoze meteo pentru peste 4.000 de aeroporturi (rapoarte METAR și TAF).

Stațiile disponibile sunt reprezentate pe hartă prin puncte galbene și roșii.

Țineți indicatorul mouse-ului pe punctul dorit pentru a vedea denumirea stației.

Apoi, faceți clic pentru a vedea observațiile și prognozele meteorologice.

Pentru a schimba harta: Pentru mărire, faceți clic pe butoanele verzi cu cruce neagră; pentru micșorare, pe butonul verde cu o liniuță; pentru hărți învecinate, pe săgețile verzi.


METAR-TAF: